Weather reports worldwide

Advertisment
San Fernando, Spain (8453): temperature & dewpoint: 10.09.2019 17:00:00 - 16.09.2019 17:00:00 (CEST)San Fernando, Spain (8453): wind speed & gusts: 10.09.2019 17:00:00 - 16.09.2019 17:00:00 (CEST)San Fernando, Spain (8453): wind direction: 10.09.2019 17:00:00 - 16.09.2019 17:00:00 (CEST)San Fernando, Spain (8453): reduced air pressure: 10.09.2019 17:00:00 - 16.09.2019 17:00:00 (CEST)San Fernando, Spain (8453): precipitation: 10.09.2019 17:00:00 - 16.09.2019 17:00:00 (CEST)
Date & Time tt [°C] td [°C] ff [km/h] ff [kn] fx [km/h] fx [kn] dd ppp [hPa] rr [mm]
16.09.2019 17:00:00 - - - - - - - - -
16.09.2019 16:00:00 25,0 17,9 15 8 23 12 W 1017,4 0,0
16.09.2019 15:00:00 25,1 18,1 10 6 18 10 WSW 1017,8 0,0
16.09.2019 14:00:00 24,4 17,9 10 6 20 11 W 1018,7 -
16.09.2019 13:00:00 23,5 18,8 12 6 20 11 W 1019,2 0,0
16.09.2019 12:00:00 22,2 20,1 5 3 11 6 SW 1019,3 0,0
16.09.2019 11:00:00 20,9 19,9 3 2 10 5 SSE 1019,1 0,0
16.09.2019 10:00:00 19,7 18,7 5 3 13 7 SE 1018,8 0,0
16.09.2019 09:00:00 19,5 18,5 6 3 14 8 SE 1018,4 0,1
16.09.2019 08:00:00 19,8 18,6 5 3 12 6 SSE 1017,9 -
16.09.2019 07:00:00 19,9 18,8 4 2 10 6 S 1017,6 0,0
16.09.2019 06:00:00 20,1 18,9 2 1 8 4 S 1017,5 0,0
16.09.2019 05:00:00 19,7 18,4 5 3 8 5 SSE 1017,6 0,0
16.09.2019 04:00:00 19,7 18,4 4 2 10 5 SSE 1018,1 0,0
16.09.2019 03:00:00 20,1 18,8 3 1 8 5 SE 1018,4 0,0
16.09.2019 02:00:00 20,8 19,4 4 2 9 5 SSE 1018,7 -
16.09.2019 01:00:00 21,2 19,7 4 2 7 4 SSE 1018,8 0,0
16.09.2019 00:00:00 21,5 20,0 2 1 6 3 SE 1018,7 0,0
15.09.2019 23:00:00 21,6 19,9 2 1 8 4 WSW 1018,8 0,0
15.09.2019 22:00:00 21,8 19,9 5 3 9 5 W 1018,2 0,0
15.09.2019 21:00:00 22,0 19,9 5 3 14 7 W 1017,6 0,0
15.09.2019 20:00:00 22,7 19,6 9 5 16 9 W 1017,4 -
15.09.2019 19:00:00 23,2 19,6 11 6 20 11 W 1017,3 0,0
15.09.2019 18:00:00 23,8 19,1 12 7 22 12 W 1017,2 0,0
15.09.2019 17:00:00 24,7 18,4 14 7 23 13 W 1017,4 0,0
15.09.2019 16:00:00 24,8 19,0 11 6 25 13 SW 1017,8 0,0
15.09.2019 15:00:00 23,8 18,7 12 7 23 12 WSW 1018,2 0,0
15.09.2019 14:00:00 23,8 18,9 14 7 25 13 WSW 1018,7 -
15.09.2019 13:00:00 24,2 18,8 8 5 19 11 SSW 1018,8 0,0
15.09.2019 12:00:00 23,2 19,3 9 5 16 9 SW 1018,9 0,0
15.09.2019 11:00:00 22,0 20,5 5 3 9 5 SSW 1018,5 0,0
15.09.2019 10:00:00 21,4 20,1 3 1 8 4 S 1018,1 0,0
15.09.2019 09:00:00 21,2 19,8 1 0 6 4 WSW 1017,7 0,0
15.09.2019 08:00:00 21,7 19,8 1 1 7 4 SSE 1017,4 -
15.09.2019 07:00:00 22,5 20,1 4 2 8 4 ENE 1017,3 0,0
15.09.2019 06:00:00 23,3 20,8 6 3 12 7 ENE 1017,0 0,0
15.09.2019 05:00:00 23,5 20,9 4 2 9 5 E 1017,0 0,0
15.09.2019 04:00:00 23,4 20,7 3 2 8 5 ENE 1017,0 0,0
15.09.2019 03:00:00 23,4 20,5 1 1 9 5 ENE 1017,3 0,0
15.09.2019 02:00:00 23,5 20,5 4 2 14 8 ESE 1017,3 -
15.09.2019 01:00:00 23,6 20,5 6 3 15 8 E 1017,8 0,0
15.09.2019 00:00:00 23,6 20,1 7 4 14 8 E 1017,9 0,0
14.09.2019 23:00:00 24,1 20,5 7 4 20 11 E 1017,9 0,0
14.09.2019 22:00:00 23,9 20,3 2 1 7 4 ENE 1017,3 0,0
14.09.2019 21:00:00 23,7 20,1 3 2 16 8 WSW 1016,8 0,0
14.09.2019 20:00:00 25,0 20,3 6 4 15 8 SW 1016,4 -
14.09.2019 19:00:00 24,2 20,1 8 4 21 11 WNW 1015,9 0,0
14.09.2019 18:00:00 25,4 20,0 9 5 22 12 W 1015,7 0,0
14.09.2019 17:00:00 25,1 20,1 14 8 24 13 W 1015,7 0,0
14.09.2019 16:00:00 25,7 20,1 19 10 31 17 WNW 1015,7 0,0
14.09.2019 15:00:00 28,2 18,3 4 2 33 18 SE 1016,0 0,0
14.09.2019 14:00:00 30,0 19,3 13 7 32 18 E 1016,4 -
14.09.2019 13:00:00 27,9 19,7 12 7 30 16 E 1017,0 0,0
14.09.2019 12:00:00 26,5 19,3 16 9 32 17 E 1017,1 0,0
14.09.2019 11:00:00 25,0 19,1 17 9 35 19 E 1017,4 0,0
14.09.2019 10:00:00 24,4 19,7 16 8 31 17 E 1017,3 0,0
14.09.2019 09:00:00 23,2 19,1 14 8 26 14 E 1017,0 0,0
14.09.2019 08:00:00 23,2 19,1 12 6 25 13 E 1016,6 -
14.09.2019 07:00:00 23,4 19,6 14 8 25 13 E 1016,2 0,0
14.09.2019 06:00:00 21,8 17,0 10 5 20 11 ENE 1015,9 0,0
14.09.2019 05:00:00 21,2 16,1 7 4 19 10 NE 1016,4 0,0
14.09.2019 04:00:00 21,1 15,6 9 5 17 9 NNE 1016,7 0,0
14.09.2019 03:00:00 21,1 15,6 8 4 16 9 ENE 1017,1 0,0
14.09.2019 02:00:00 21,1 15,4 6 3 18 10 NE 1017,6 -
14.09.2019 01:00:00 21,2 16,0 9 5 26 14 ENE 1018,1 0,0
14.09.2019 00:00:00 22,0 16,5 11 6 19 11 ENE 1018,3 0,0
13.09.2019 23:00:00 22,6 16,8 9 5 27 14 ENE 1018,4 0,0
13.09.2019 22:00:00 23,4 16,6 12 6 32 17 E 1017,9 0,0
13.09.2019 21:00:00 23,9 16,6 14 7 25 14 E 1017,6 0,0
13.09.2019 20:00:00 25,3 16,7 16 9 39 21 E 1017,1 -
13.09.2019 19:00:00 25,4 16,6 14 8 29 16 E 1017,2 0,0
13.09.2019 18:00:00 26,7 16,0 15 8 32 17 E 1016,7 0,0
13.09.2019 17:00:00 26,5 15,3 16 8 42 23 ENE 1016,9 0,0
13.09.2019 16:00:00 28,9 15,4 14 8 38 21 E 1016,7 0,0
13.09.2019 15:00:00 29,0 15,2 17 9 36 19 ESE 1016,5 0,0
13.09.2019 14:00:00 30,1 15,8 16 9 39 21 E 1017,1 -
13.09.2019 13:00:00 29,4 16,6 16 8 38 20 ESE 1017,4 0,0
13.09.2019 12:00:00 27,9 17,1 14 8 29 16 E 1018,2 0,0
13.09.2019 11:00:00 23,7 15,4 3 2 17 9 ENE 1018,2 0,0
13.09.2019 10:00:00 20,9 14,5 9 5 16 9 E 1018,0 0,0
13.09.2019 09:00:00 20,3 14,2 8 4 12 7 ENE 1017,9 0,0
13.09.2019 08:00:00 19,8 13,9 4 2 12 7 NE 1018,1 -
13.09.2019 07:00:00 20,0 15,0 8 5 12 7 ENE 1017,1 0,0
13.09.2019 06:00:00 20,3 15,1 9 5 16 9 E 1017,6 0,0
13.09.2019 05:00:00 20,6 15,2 8 4 23 12 E 1018,0 0,0
13.09.2019 04:00:00 20,8 13,9 11 6 25 13 E 1018,8 0,0
13.09.2019 03:00:00 21,2 12,8 9 5 17 9 E 1019,1 0,0
13.09.2019 02:00:00 21,8 12,6 9 5 27 14 E 1019,5 -
13.09.2019 01:00:00 22,4 12,3 8 4 23 12 E 1019,7 0,0
13.09.2019 00:00:00 22,7 12,3 12 7 27 15 E 1019,9 0,0
12.09.2019 23:00:00 22,9 11,9 7 4 20 11 E 1020,2 0,0
12.09.2019 22:00:00 23,2 11,6 10 5 27 14 E 1020,2 0,0
12.09.2019 21:00:00 24,1 12,1 11 6 35 19 ESE 1019,3 0,0
12.09.2019 20:00:00 26,0 12,8 17 9 40 22 E 1019,0 -
12.09.2019 19:00:00 27,5 13,5 18 10 39 21 E 1019,1 0,0
12.09.2019 18:00:00 27,8 14,0 15 8 38 21 E 1019,0 0,0
12.09.2019 17:00:00 29,6 14,1 15 8 37 20 E 1019,1 0,0
12.09.2019 16:00:00 28,9 15,1 9 5 25 14 ESE 1019,4 0,0
12.09.2019 15:00:00 26,4 15,8 5 3 21 11 WSW 1019,8 0,0
12.09.2019 14:00:00 25,5 14,0 8 4 22 12 SSW 1020,2 -
12.09.2019 13:00:00 23,7 13,9 6 3 15 8 N 1020,6 0,0
12.09.2019 12:00:00 23,7 14,4 3 1 12 6 N 1020,7 0,0
12.09.2019 11:00:00 21,9 13,6 1 1 14 7 ENE 1020,2 0,0
12.09.2019 10:00:00 21,5 11,8 3 2 12 7 E 1020,1 0,0
12.09.2019 09:00:00 18,8 11,1 6 3 13 7 E 1019,8 0,0
12.09.2019 08:00:00 19,1 11,1 3 2 12 6 NNE 1019,1 -
12.09.2019 07:00:00 19,4 14,0 4 2 14 8 NE 1019,3 0,0
12.09.2019 06:00:00 20,0 14,1 9 5 22 12 E 1018,5 0,0
12.09.2019 05:00:00 20,1 13,1 11 6 20 11 E 1018,6 0,0
12.09.2019 04:00:00 19,8 11,8 9 5 24 13 E 1018,6 0,0
12.09.2019 03:00:00 20,8 13,5 11 6 27 14 ENE 1018,6 0,0
12.09.2019 02:00:00 21,3 14,4 6 3 13 7 NE 1018,8 -
12.09.2019 01:00:00 21,5 14,4 2 1 11 6 N 1018,8 0,0
12.09.2019 00:00:00 22,2 15,1 8 4 18 10 NNW 1018,9 0,0
11.09.2019 23:00:00 22,6 14,7 10 6 22 12 NW 1019,2 0,0
11.09.2019 22:00:00 22,8 14,9 10 5 23 13 WNW 1018,3 0,0
11.09.2019 21:00:00 22,7 15,8 15 8 27 14 NW 1017,5 0,0
11.09.2019 20:00:00 28,7 8,4 12 6 32 17 ENE 1016,8 -
11.09.2019 19:00:00 29,0 8,7 15 8 46 25 ENE 1016,3 0,0
11.09.2019 18:00:00 28,6 8,3 14 8 42 23 NE 1016,4 0,0
11.09.2019 17:00:00 28,3 8,5 16 9 36 19 NE 1016,3 0,0
11.09.2019 16:00:00 27,1 8,0 11 6 43 23 NE 1017,1 0,0
11.09.2019 15:00:00 27,0 8,0 14 8 37 20 NE 1017,6 0,0
11.09.2019 14:00:00 25,2 7,3 10 5 30 16 NNE 1018,1 -
11.09.2019 13:00:00 24,7 7,8 14 7 36 20 ENE 1018,6 0,0
11.09.2019 12:00:00 23,9 8,0 12 6 29 16 ENE 1019,0 0,0
11.09.2019 11:00:00 21,5 8,4 13 7 26 14 NE 1019,1 0,0
11.09.2019 10:00:00 18,9 17,1 4 2 9 5 NNW 1019,0 0,0
11.09.2019 09:00:00 17,3 15,8 2 1 13 7 N 1018,6 0,0
11.09.2019 08:00:00 17,0 15,7 8 4 17 9 E 1017,9 -
11.09.2019 07:00:00 17,6 16,1 8 5 19 11 E 1016,9 0,0
11.09.2019 06:00:00 18,2 16,7 1 1 13 7 ENE 1015,8 0,0
11.09.2019 05:00:00 18,6 17,1 7 4 13 7 ESE 1016,0 0,0
11.09.2019 04:00:00 19,0 17,1 7 4 12 6 E 1016,6 0,0
11.09.2019 03:00:00 19,5 17,3 6 4 14 7 ESE 1016,6 0,0
11.09.2019 02:00:00 19,8 16,8 7 4 14 8 ESE 1016,7 -
11.09.2019 01:00:00 20,1 16,3 6 4 16 8 ESE 1016,8 0,0
11.09.2019 00:00:00 22,2 17,4 2 1 20 11 ESE 1016,6 0,0
10.09.2019 23:00:00 21,8 17,8 13 7 28 15 W 1016,3 0,0
10.09.2019 22:00:00 21,8 16,7 18 10 30 16 W 1016,0 0,0
10.09.2019 21:00:00 21,7 15,5 18 10 37 20 W 1015,4 0,0
10.09.2019 20:00:00 22,5 15,3 23 12 40 22 W 1015,1 -
10.09.2019 19:00:00 22,9 13,7 24 13 38 21 W 1015,1 0,0
10.09.2019 18:00:00 23,3 13,5 22 12 38 20 W 1015,4 0,0
10.09.2019 17:00:00 22,8 12,7 22 12 38 20 WNW 1016,0 0,0

tt = temperature
td = dewpoint
ff = wind speed
fx = gusts
dd = wind direction
ppp = reduced air pressure
rr = precipitation

Next stations